Time;durP1;ratioP1;P1;durP2;ratioP2;P2;SDS_P1;SDS_P2;PMS_P1;PMS_P2;Temp;Humidity;BMP_temperature;BMP_pressure;BME280_temperature;BME280_humidity;BME280_pressure;Samples;Min_cycle;Max_cycle;Signal;HPM_P1;HPM_P2
2023/08/21 00:00:46;;;;;;;;;;;21.90;66.30;;;;;;5092567;28;19908;-32
2023/08/21 00:03:11;;;;;;;;;;;21.80;66.30;;;;;;5092389;28;19998;-32
2023/08/21 00:05:37;;;;;;;;;;;21.90;66.40;;;;;;5092335;28;19920;-34
2023/08/21 00:08:03;;;;;;;;;;;21.80;66.50;;;;;;5092774;28;20399;-32
2023/08/21 00:10:29;;;;;;;;;;;21.80;66.50;;;;;;5092581;28;19918;-33
2023/08/21 00:12:55;;;;;;;;;;;21.80;66.50;;;;;;5093049;28;19908;-30
2023/08/21 00:15:20;;;;;;;;;;;21.80;66.60;;;;;;5092715;28;20241;-31
2023/08/21 00:17:46;;;;;;;;;;;21.80;66.60;;;;;;5092481;28;19995;-29
2023/08/21 00:20:12;;;;;;;;;;;21.70;66.80;;;;;;5092326;28;20027;-41
2023/08/21 00:22:37;;;;;;;;;;;21.70;67.00;;;;;;5092420;28;20468;-30
2023/08/21 00:25:04;;;;;;;;;;;21.60;67.10;;;;;;5092225;28;19922;-32
2023/08/21 00:27:29;;;;;;;;;;;21.50;67.20;;;;;;5092439;28;19915;-30
2023/08/21 00:29:55;;;;;;;;;;;21.50;67.20;;;;;;5092600;28;19908;-29
2023/08/21 00:32:20;;;;;;;;;;;21.50;67.30;;;;;;5092277;28;20387;-30
2023/08/21 00:34:46;;;;;;;;;;;21.60;67.40;;;;;;5092433;28;19957;-30
2023/08/21 00:37:11;;;;;;;;;;;21.60;67.40;;;;;;5092091;28;20383;-31
2023/08/21 00:39:37;;;;;;;;;;;21.60;67.40;;;;;;5092226;28;19908;-30
2023/08/21 00:42:02;;;;;;;;;;;21.60;67.40;;;;;;5091962;28;19942;-30
2023/08/21 00:44:27;;;;;;;;;;;21.50;67.30;;;;;;5092158;28;19978;-30
2023/08/21 00:46:53;;;;;;;;;;;21.60;67.50;;;;;;5092314;28;19949;-30
2023/08/21 00:49:19;;;;;;;;;;;21.50;67.50;;;;;;5092159;28;19912;-32
2023/08/21 00:51:45;;;;;;;;;;;21.50;67.50;;;;;;5092104;28;19955;-30
2023/08/21 00:54:10;;;;;;;;;;;21.50;67.50;;;;;;5092342;28;19908;-34
2023/08/21 00:56:36;;;;;;;;;;;21.60;67.50;;;;;;5091916;28;20338;-29
2023/08/21 00:59:02;;;;;;;;;;;21.60;67.50;;;;;;5092197;28;19908;-33
2023/08/21 01:01:28;;;;;;;;;;;21.70;67.50;;;;;;5091911;28;19973;-31
2023/08/21 01:03:53;;;;;;;;;;;21.70;67.50;;;;;;5091801;28;20003;-30
2023/08/21 01:06:19;;;;;;;;;;;21.70;67.50;;;;;;5091535;28;20358;-30
2023/08/21 01:08:59;;;;;;;;;;;21.70;67.50;;;;;;5091870;28;19908;-30
2023/08/21 01:11:30;;;;;;;;;;;21.70;67.60;;;;;;5090516;28;19914;-32
2023/08/21 01:14:05;;;;;;;;;;;21.70;67.60;;;;;;5092069;28;20376;-30
2023/08/21 01:16:31;;;;;;;;;;;21.70;67.70;;;;;;5095429;28;19915;-30
2023/08/21 01:18:59;;;;;;;;;;;21.60;67.70;;;;;;5095594;28;19908;-30
2023/08/21 01:21:25;;;;;;;;;;;21.60;67.80;;;;;;5095559;28;20151;-29
2023/08/21 01:23:50;;;;;;;;;;;21.60;67.90;;;;;;5095785;28;19909;-29
2023/08/21 01:26:16;;;;;;;;;;;21.60;68.00;;;;;;5095367;28;19912;-30
2023/08/21 01:28:42;;;;;;;;;;;21.60;68.00;;;;;;5095686;28;19908;-29
2023/08/21 01:31:14;;;;;;;;;;;21.50;68.00;;;;;;5095430;28;20267;-31
2023/08/21 01:33:43;;;;;;;;;;;21.50;68.10;;;;;;5094069;28;19912;-30
2023/08/21 01:36:08;;;;;;;;;;;21.50;68.10;;;;;;5095209;28;19935;-29
2023/08/21 01:38:35;;;;;;;;;;;21.50;68.20;;;;;;5095484;28;19999;-29
2023/08/21 01:41:01;;;;;;;;;;;21.40;68.30;;;;;;5095346;28;19997;-32
2023/08/21 01:43:26;;;;;;;;;;;21.40;68.50;;;;;;5093796;28;19952;-30
2023/08/21 01:45:51;;;;;;;;;;;21.40;68.60;;;;;;5094876;28;19935;-33
2023/08/21 01:48:17;;;;;;;;;;;21.30;68.60;;;;;;5094968;28;19912;-33
2023/08/21 01:50:42;;;;;;;;;;;21.40;68.80;;;;;;5094846;28;19908;-32
2023/08/21 01:53:08;;;;;;;;;;;21.30;68.80;;;;;;5094979;28;19912;-32
2023/08/21 01:55:33;;;;;;;;;;;21.30;68.80;;;;;;5094802;28;19951;-33
2023/08/21 01:57:59;;;;;;;;;;;21.30;68.90;;;;;;5093649;28;19915;-30
2023/08/21 02:00:24;;;;;;;;;;;21.30;68.90;;;;;;5094574;28;19908;-34
2023/08/21 02:02:50;;;;;;;;;;;21.30;69.00;;;;;;5094526;28;19994;-30
2023/08/21 02:05:15;;;;;;;;;;;21.20;69.00;;;;;;5094306;28;19924;-32
2023/08/21 02:07:40;;;;;;;;;;;21.20;69.10;;;;;;5094546;28;19908;-30
2023/08/21 02:10:06;;;;;;;;;;;21.20;69.10;;;;;;5094646;28;20280;-30
2023/08/21 02:12:32;;;;;;;;;;;21.20;69.70;;;;;;5094629;28;19962;-31
2023/08/21 02:14:57;;;;;;;;;;;21.20;69.10;;;;;;5094617;28;20356;-32
2023/08/21 02:17:26;;;;;;;;;;;21.20;69.00;;;;;;5094746;28;19912;-32
2023/08/21 02:19:51;;;;;;;;;;;21.20;69.00;;;;;;5094411;28;20149;-32
2023/08/21 02:22:16;;;;;;;;;;;21.20;69.00;;;;;;5094661;28;19915;-33
2023/08/21 02:24:42;;;;;;;;;;;21.20;69.00;;;;;;5094418;28;19950;-33
2023/08/21 02:27:07;;;;;;;;;;;21.20;68.90;;;;;;5094202;28;19915;-31
2023/08/21 02:29:33;;;;;;;;;;;21.30;69.00;;;;;;5094326;28;19908;-30
2023/08/21 02:31:59;;;;;;;;;;;21.30;68.90;;;;;;5094256;28;19959;-32
2023/08/21 02:34:24;;;;;;;;;;;21.30;68.90;;;;;;5094292;28;19909;-30
2023/08/21 02:36:49;;;;;;;;;;;21.30;68.90;;;;;;5094272;28;19933;-31
2023/08/21 02:39:15;;;;;;;;;;;21.30;68.90;;;;;;5094288;28;19908;-31
2023/08/21 02:41:40;;;;;;;;;;;21.30;68.90;;;;;;5093856;28;19915;-30
2023/08/21 02:44:06;;;;;;;;;;;21.30;69.00;;;;;;5093968;28;19915;-33
2023/08/21 02:46:33;;;;;;;;;;;21.40;69.00;;;;;;5094022;28;19998;-35
2023/08/21 02:48:58;;;;;;;;;;;21.30;68.90;;;;;;5094293;28;19912;-31
2023/08/21 02:51:24;;;;;;;;;;;21.40;69.00;;;;;;5093749;28;19930;-32
2023/08/21 02:53:49;;;;;;;;;;;21.30;68.90;;;;;;5093837;28;19969;-32
2023/08/21 02:56:15;;;;;;;;;;;21.40;69.00;;;;;;5093635;28;19987;-31
2023/08/21 02:58:40;;;;;;;;;;;21.30;69.00;;;;;;5093904;28;19908;-29
2023/08/21 03:01:06;;;;;;;;;;;21.30;69.30;;;;;;5093630;28;19908;-30
2023/08/21 03:03:33;;;;;;;;;;;21.30;69.10;;;;;;5093698;28;20360;-31
2023/08/21 03:05:59;;;;;;;;;;;21.30;69.10;;;;;;5093248;28;19924;-30
2023/08/21 03:08:24;;;;;;;;;;;21.30;69.20;;;;;;5093539;28;20287;-31
2023/08/21 03:10:50;;;;;;;;;;;21.30;69.30;;;;;;5093491;28;19914;-38
2023/08/21 03:13:15;;;;;;;;;;;21.20;69.30;;;;;;5093371;28;20298;-34
2023/08/21 03:15:41;;;;;;;;;;;21.30;69.40;;;;;;5093394;28;19932;-33
2023/08/21 03:18:06;;;;;;;;;;;21.30;69.40;;;;;;5093347;28;19948;-33
2023/08/21 03:20:32;;;;;;;;;;;21.20;69.40;;;;;;5093221;28;19914;-33
2023/08/21 03:22:57;;;;;;;;;;;21.20;69.40;;;;;;5093228;28;19953;-30
2023/08/21 03:25:23;;;;;;;;;;;21.20;69.40;;;;;;5093431;28;20279;-33
2023/08/21 03:27:49;;;;;;;;;;;21.20;69.40;;;;;;5093008;28;19919;-34
2023/08/21 03:30:15;;;;;;;;;;;21.20;69.50;;;;;;5093420;28;19986;-34
2023/08/21 03:32:40;;;;;;;;;;;21.20;69.50;;;;;;5093376;28;20393;-32
2023/08/21 03:35:06;;;;;;;;;;;21.30;69.50;;;;;;5093130;28;19908;-31
2023/08/21 03:37:35;;;;;;;;;;;21.30;69.40;;;;;;5092628;28;19908;-32
2023/08/21 03:40:02;;;;;;;;;;;21.30;69.30;;;;;;5093191;28;19908;-38
2023/08/21 03:42:27;;;;;;;;;;;21.30;69.30;;;;;;5091493;28;19914;-30
2023/08/21 03:44:53;;;;;;;;;;;21.30;69.30;;;;;;5092869;28;20460;-30
2023/08/21 03:47:18;;;;;;;;;;;21.30;69.20;;;;;;5092705;28;19912;-31
2023/08/21 03:49:44;;;;;;;;;;;21.30;69.30;;;;;;5092907;28;19908;-30
2023/08/21 03:52:09;;;;;;;;;;;21.30;69.40;;;;;;5092675;28;20364;-30
2023/08/21 03:54:35;;;;;;;;;;;21.30;69.40;;;;;;5092917;28;19940;-30
2023/08/21 03:57:00;;;;;;;;;;;21.30;69.50;;;;;;5092477;28;19958;-32
2023/08/21 03:59:27;;;;;;;;;;;21.30;69.50;;;;;;5092860;28;19915;-30
2023/08/21 04:01:53;;;;;;;;;;;21.30;69.50;;;;;;5092581;28;19908;-30
2023/08/21 04:04:18;;;;;;;;;;;21.10;69.50;;;;;;5092601;28;19916;-33
2023/08/21 04:06:44;;;;;;;;;;;21.20;69.70;;;;;;5092525;28;19920;-30
2023/08/21 04:09:10;;;;;;;;;;;21.10;69.70;;;;;;5092636;28;19908;-30
2023/08/21 04:11:36;;;;;;;;;;;21.10;69.90;;;;;;5092732;28;19908;-29
2023/08/21 04:14:01;;;;;;;;;;;21.00;69.90;;;;;;5092578;28;19909;-33
2023/08/21 04:16:28;;;;;;;;;;;21.00;70.00;;;;;;5092271;28;19954;-32
2023/08/21 04:18:53;;;;;;;;;;;21.00;70.00;;;;;;5092429;28;19909;-31
2023/08/21 04:21:19;;;;;;;;;;;21.00;70.00;;;;;;5091973;28;19930;-29
2023/08/21 04:23:46;;;;;;;;;;;21.00;70.00;;;;;;5092506;28;20360;-34
2023/08/21 04:26:11;;;;;;;;;;;21.00;70.00;;;;;;5092125;28;19912;-29
2023/08/21 04:28:37;;;;;;;;;;;21.00;70.00;;;;;;5092265;28;19999;-32
2023/08/21 04:31:05;;;;;;;;;;;21.00;70.00;;;;;;5090999;28;19908;-29
2023/08/21 04:33:31;;;;;;;;;;;21.00;70.00;;;;;;5092233;28;20002;-32
2023/08/21 04:35:57;;;;;;;;;;;21.00;70.00;;;;;;5092162;28;19908;-29
2023/08/21 04:38:22;;;;;;;;;;;21.00;70.00;;;;;;5092153;28;20003;-31
2023/08/21 04:40:48;;;;;;;;;;;21.00;69.90;;;;;;5092160;28;19912;-29
2023/08/21 04:43:13;;;;;;;;;;;21.00;69.90;;;;;;5092106;28;19915;-30
2023/08/21 04:45:45;;;;;;;;;;;21.00;69.90;;;;;;5092389;28;19922;-33
2023/08/21 04:48:11;;;;;;;;;;;21.00;69.90;;;;;;5091912;28;19908;-30
2023/08/21 04:50:36;;;;;;;;;;;21.00;69.90;;;;;;5094233;28;19995;-31
2023/08/21 04:53:02;;;;;;;;;;;21.00;69.90;;;;;;5096221;28;19931;-35
2023/08/21 04:55:27;;;;;;;;;;;21.00;69.90;;;;;;5096059;28;19966;-30
2023/08/21 04:57:52;;;;;;;;;;;21.00;70.00;;;;;;5095913;28;19952;-30
2023/08/21 05:00:18;;;;;;;;;;;21.00;70.00;;;;;;5095977;28;19942;-40
2023/08/21 05:02:44;;;;;;;;;;;21.00;70.10;;;;;;5095898;28;20356;-31
2023/08/21 05:05:09;;;;;;;;;;;21.00;70.00;;;;;;5095763;28;19927;-31
2023/08/21 05:07:35;;;;;;;;;;;21.10;70.00;;;;;;5095758;28;19908;-30
2023/08/21 05:10:01;;;;;;;;;;;21.10;69.90;;;;;;5095733;28;19986;-31
2023/08/21 05:12:26;;;;;;;;;;;21.10;69.90;;;;;;5095889;28;20003;-33
2023/08/21 05:14:52;;;;;;;;;;;21.10;69.90;;;;;;5095727;28;19933;-32
2023/08/21 05:17:17;;;;;;;;;;;21.10;69.90;;;;;;5095617;28;19908;-30
2023/08/21 05:19:43;;;;;;;;;;;21.10;69.90;;;;;;5095524;28;19933;-29
2023/08/21 05:22:08;;;;;;;;;;;21.20;69.90;;;;;;5095678;28;20368;-30
2023/08/21 05:24:34;;;;;;;;;;;21.20;69.80;;;;;;5095481;28;20006;-33
2023/08/21 05:26:59;;;;;;;;;;;21.20;69.70;;;;;;5095153;28;19908;-36
2023/08/21 05:29:24;;;;;;;;;;;21.20;69.70;;;;;;5095453;28;19930;-34
2023/08/21 05:31:50;;;;;;;;;;;21.20;69.70;;;;;;5095337;28;20364;-34
2023/08/21 05:34:16;;;;;;;;;;;21.20;69.80;;;;;;5095659;28;19908;-33
2023/08/21 05:36:41;;;;;;;;;;;21.20;69.90;;;;;;5095433;28;19908;-33
2023/08/21 05:39:07;;;;;;;;;;;21.20;70.00;;;;;;5095351;28;19915;-30
2023/08/21 05:41:33;;;;;;;;;;;21.10;70.00;;;;;;5095064;28;19994;-32
2023/08/21 05:43:58;;;;;;;;;;;21.10;70.10;;;;;;5095225;28;19962;-34
2023/08/21 05:46:24;;;;;;;;;;;21.20;70.10;;;;;;5094970;28;20003;-29
2023/08/21 05:48:49;;;;;;;;;;;21.20;70.00;;;;;;5095209;28;19908;-32
2023/08/21 05:51:15;;;;;;;;;;;21.20;70.00;;;;;;5094658;28;20368;-34
2023/08/21 05:53:40;;;;;;;;;;;21.30;69.90;;;;;;5094926;28;19908;-31
2023/08/21 05:56:05;;;;;;;;;;;21.30;69.90;;;;;;5094977;28;19916;-30
2023/08/21 05:58:32;;;;;;;;;;;21.30;69.90;;;;;;5095075;28;19911;-35
2023/08/21 06:00:58;;;;;;;;;;;21.20;69.90;;;;;;5094409;28;19908;-33
2023/08/21 06:03:24;;;;;;;;;;;21.30;69.90;;;;;;5094906;28;19916;-34
2023/08/21 06:05:49;;;;;;;;;;;21.20;69.80;;;;;;5094317;28;20003;-32
2023/08/21 06:08:15;;;;;;;;;;;21.30;69.90;;;;;;5094857;28;19915;-32
2023/08/21 06:10:40;;;;;;;;;;;21.30;69.80;;;;;;5094885;28;19995;-31
2023/08/21 06:13:05;;;;;;;;;;;21.40;70.40;;;;;;5094501;28;19912;-34
2023/08/21 06:15:31;;;;;;;;;;;21.40;69.70;;;;;;5094685;28;19908;-30
2023/08/21 06:17:58;;;;;;;;;;;21.50;69.60;;;;;;5094728;28;19908;-31
2023/08/21 06:20:24;;;;;;;;;;;21.60;69.50;;;;;;5094292;28;20002;-34
2023/08/21 06:22:49;;;;;;;;;;;21.60;69.40;;;;;;5094567;28;19973;-30
2023/08/21 06:25:15;;;;;;;;;;;21.70;69.30;;;;;;5094267;28;19935;-33
2023/08/21 06:27:40;;;;;;;;;;;21.70;69.30;;;;;;5094443;28;19951;-32
2023/08/21 06:30:06;;;;;;;;;;;21.60;69.30;;;;;;5094223;28;19908;-31
2023/08/21 06:32:31;;;;;;;;;;;21.70;69.30;;;;;;5094807;28;19908;-30
2023/08/21 06:34:57;;;;;;;;;;;21.70;69.20;;;;;;5094060;28;20380;-33
2023/08/21 06:37:22;;;;;;;;;;;21.70;69.10;;;;;;5093969;28;19908;-32
2023/08/21 06:39:48;;;;;;;;;;;21.80;69.10;;;;;;5093956;28;20414;-34
2023/08/21 06:42:13;;;;;;;;;;;21.80;69.00;;;;;;5094012;28;20010;-33
2023/08/21 06:44:40;;;;;;;;;;;21.90;68.90;;;;;;5093807;28;20322;-31
2023/08/21 06:47:05;;;;;;;;;;;21.90;68.80;;;;;;5093688;28;19908;-34
2023/08/21 06:49:31;;;;;;;;;;;22.00;68.90;;;;;;5094083;28;20367;-33
2023/08/21 06:51:56;;;;;;;;;;;22.00;68.80;;;;;;5094140;28;19916;-32
2023/08/21 06:54:22;;;;;;;;;;;22.00;68.80;;;;;;5093611;28;19908;-32
2023/08/21 06:56:47;;;;;;;;;;;22.00;68.90;;;;;;5093609;28;19973;-31
2023/08/21 06:59:13;;;;;;;;;;;22.00;68.90;;;;;;5093957;28;19908;-30
2023/08/21 07:01:38;;;;;;;;;;;22.00;68.90;;;;;;5093959;28;19940;-30
2023/08/21 07:04:04;;;;;;;;;;;22.00;68.90;;;;;;5093680;28;19919;-31
2023/08/21 07:06:30;;;;;;;;;;;22.00;68.80;;;;;;5093179;28;19920;-31
2023/08/21 07:08:56;;;;;;;;;;;22.00;68.70;;;;;;5093943;28;19908;-37
2023/08/21 07:11:21;;;;;;;;;;;22.10;68.70;;;;;;5093412;28;20378;-36
2023/08/21 07:13:47;;;;;;;;;;;22.10;68.60;;;;;;5092780;28;19915;-30
2023/08/21 07:16:12;;;;;;;;;;;22.20;68.50;;;;;;5093260;28;20257;-33
2023/08/21 07:18:38;;;;;;;;;;;22.20;68.40;;;;;;5093570;28;20431;-31
2023/08/21 07:21:04;;;;;;;;;;;22.30;68.30;;;;;;5093737;28;19912;-31
2023/08/21 07:23:30;;;;;;;;;;;22.40;68.20;;;;;;5093581;28;19908;-32
2023/08/21 07:25:56;;;;;;;;;;;22.50;68.00;;;;;;5093375;28;20403;-31
2023/08/21 07:28:21;;;;;;;;;;;22.60;68.50;;;;;;5093164;28;19908;-32
2023/08/21 07:30:46;;;;;;;;;;;22.70;67.70;;;;;;5093025;28;19908;-32
2023/08/21 07:33:12;;;;;;;;;;;22.80;67.50;;;;;;5093310;28;19915;-31
2023/08/21 07:35:37;;;;;;;;;;;22.90;67.40;;;;;;5091695;28;19961;-34
2023/08/21 07:38:03;;;;;;;;;;;23.10;67.20;;;;;;5092827;28;20287;-31
2023/08/21 07:40:29;;;;;;;;;;;23.20;67.00;;;;;;5092996;28;19916;-31
2023/08/21 07:42:54;;;;;;;;;;;23.30;66.80;;;;;;5092804;28;19909;-32
2023/08/21 07:45:20;;;;;;;;;;;23.40;66.50;;;;;;5092691;28;19935;-32
2023/08/21 07:47:45;;;;;;;;;;;23.60;66.40;;;;;;5092717;28;20006;-37
2023/08/21 07:50:11;;;;;;;;;;;23.60;66.30;;;;;;5092692;28;19909;-31
2023/08/21 07:52:37;;;;;;;;;;;23.60;66.40;;;;;;5092707;28;19912;-33
2023/08/21 07:55:02;;;;;;;;;;;23.60;66.30;;;;;;5092574;28;19908;-34
2023/08/21 07:57:29;;;;;;;;;;;23.60;66.30;;;;;;5092786;28;19912;-35
2023/08/21 07:59:54;;;;;;;;;;;23.60;66.30;;;;;;5092935;28;19953;-29
2023/08/21 08:02:20;;;;;;;;;;;23.70;66.30;;;;;;5092398;28;19908;-34
2023/08/21 08:04:46;;;;;;;;;;;23.70;66.30;;;;;;5092338;28;19956;-29
2023/08/21 08:07:11;;;;;;;;;;;23.80;66.20;;;;;;5092337;28;19908;-38
2023/08/21 08:09:37;;;;;;;;;;;23.80;66.00;;;;;;5092762;28;19908;-35
2023/08/21 08:12:02;;;;;;;;;;;23.90;65.90;;;;;;5091115;28;19999;-36
2023/08/21 08:14:28;;;;;;;;;;;24.00;65.80;;;;;;5090644;28;20010;-35
2023/08/21 08:16:53;;;;;;;;;;;24.10;65.40;;;;;;5091976;28;20000;-31
2023/08/21 08:19:19;;;;;;;;;;;24.10;65.20;;;;;;5092294;28;19932;-32
2023/08/21 08:21:44;;;;;;;;;;;24.10;65.20;;;;;;5092323;28;19955;-36
2023/08/21 08:24:10;;;;;;;;;;;24.10;65.30;;;;;;5092469;28;19991;-32
2023/08/21 08:26:35;;;;;;;;;;;24.10;65.30;;;;;;5092308;28;19927;-36
2023/08/21 08:29:01;;;;;;;;;;;24.20;65.30;;;;;;5092626;28;19908;-32
2023/08/21 08:31:27;;;;;;;;;;;24.20;65.10;;;;;;5092307;28;19999;-32
2023/08/21 08:33:53;;;;;;;;;;;24.20;65.10;;;;;;5092444;28;20386;-35
2023/08/21 08:36:19;;;;;;;;;;;24.30;65.00;;;;;;5091963;28;19920;-33
2023/08/21 08:38:45;;;;;;;;;;;24.40;65.00;;;;;;5092185;28;20360;-36
2023/08/21 08:41:13;;;;;;;;;;;24.40;64.90;;;;;;5092042;28;19908;-33
2023/08/21 08:43:39;;;;;;;;;;;24.40;64.80;;;;;;5092421;28;19908;-31
2023/08/21 08:46:06;;;;;;;;;;;24.40;64.70;;;;;;5091953;28;19966;-34
2023/08/21 08:48:31;;;;;;;;;;;24.30;64.70;;;;;;5091736;28;19915;-32
2023/08/21 08:50:57;;;;;;;;;;;24.40;64.80;;;;;;5089229;28;19908;-34
2023/08/21 08:53:22;;;;;;;;;;;24.30;64.70;;;;;;5090779;28;20415;-34
2023/08/21 08:55:48;;;;;;;;;;;24.30;64.70;;;;;;5090613;28;20032;-32
2023/08/21 08:58:13;;;;;;;;;;;24.20;64.80;;;;;;5090991;28;20207;-35
2023/08/21 09:00:39;;;;;;;;;;;24.20;64.90;;;;;;5091906;28;19912;-35
2023/08/21 09:03:04;;;;;;;;;;;24.20;64.90;;;;;;5092141;28;20255;-36
2023/08/21 09:05:30;;;;;;;;;;;24.20;64.90;;;;;;5090612;28;20368;-37
2023/08/21 09:08:02;;;;;;;;;;;24.30;64.80;;;;;;5091781;28;19919;-31
2023/08/21 09:10:27;;;;;;;;;;;24.30;64.60;;;;;;5092209;28;19995;-34
2023/08/21 09:12:53;;;;;;;;;;;24.40;64.60;;;;;;5091924;28;19908;-40
2023/08/21 09:15:18;;;;;;;;;;;24.50;64.40;;;;;;5091881;28;19948;-33
2023/08/21 09:17:52;;;;;;;;;;;24.60;64.40;;;;;;5091664;28;19908;-34
2023/08/21 09:20:18;;;;;;;;;;;24.60;64.30;;;;;;5091719;28;19915;-33
2023/08/21 09:22:52;;;;;;;;;;;24.70;64.30;;;;;;5091826;28;19909;-32
2023/08/21 09:25:18;;;;;;;;;;;24.70;64.20;;;;;;5091712;28;19935;-36
2023/08/21 09:27:43;;;;;;;;;;;24.80;64.20;;;;;;5091887;28;19909;-33
2023/08/21 09:30:09;;;;;;;;;;;24.90;63.90;;;;;;5090381;28;20010;-33
2023/08/21 09:32:51;;;;;;;;;;;24.90;63.70;;;;;;5091933;28;19908;-36
2023/08/21 09:35:17;;;;;;;;;;;24.90;63.60;;;;;;5091886;28;20417;-34
2023/08/21 09:37:46;;;;;;;;;;;25.00;63.50;;;;;;5095168;28;19908;-34
2023/08/21 09:40:11;;;;;;;;;;;25.00;63.30;;;;;;5095625;28;19935;-36
2023/08/21 09:42:38;;;;;;;;;;;25.10;63.20;;;;;;5095018;28;19951;-34
2023/08/21 09:45:04;;;;;;;;;;;25.10;63.10;;;;;;5095081;28;20019;-35
2023/08/21 09:47:30;;;;;;;;;;;25.00;62.80;;;;;;5094917;28;19955;-35
2023/08/21 09:49:55;;;;;;;;;;;25.00;63.00;;;;;;5095084;28;19915;-32
2023/08/21 09:52:21;;;;;;;;;;;25.00;63.00;;;;;;5095005;28;19962;-32
2023/08/21 09:54:47;;;;;;;;;;;25.00;63.10;;;;;;5095081;28;20006;-31
2023/08/21 09:57:12;;;;;;;;;;;25.00;63.00;;;;;;5094764;28;20325;-42
2023/08/21 09:59:40;;;;;;;;;;;25.00;62.80;;;;;;5094948;28;20360;-32
2023/08/21 10:02:06;;;;;;;;;;;25.10;62.80;;;;;;5094806;28;19915;-32
2023/08/21 10:04:34;;;;;;;;;;;25.10;62.90;;;;;;5094591;28;19914;-30
2023/08/21 10:07:00;;;;;;;;;;;25.10;62.80;;;;;;5094618;28;19912;-34
2023/08/21 10:09:26;;;;;;;;;;;25.10;62.70;;;;;;5094969;28;19931;-31
2023/08/21 10:11:53;;;;;;;;;;;25.10;62.60;;;;;;5094640;28;19954;-30
2023/08/21 10:14:20;;;;;;;;;;;25.10;62.60;;;;;;5094741;28;19912;-31
2023/08/21 10:16:46;;;;;;;;;;;25.10;62.60;;;;;;5094325;28;20002;-36
2023/08/21 10:19:14;;;;;;;;;;;25.10;62.60;;;;;;5094375;28;19935;-34
2023/08/21 10:21:39;;;;;;;;;;;25.10;62.50;;;;;;5094409;28;19919;-30
2023/08/21 10:24:05;;;;;;;;;;;25.20;62.50;;;;;;5094482;28;19912;-30
2023/08/21 10:26:31;;;;;;;;;;;25.20;62.50;;;;;;5094242;28;19973;-30
2023/08/21 10:29:02;;;;;;;;;;;25.20;62.40;;;;;;5094521;28;20395;-33
2023/08/21 10:31:28;;;;;;;;;;;25.30;62.20;;;;;;5094160;28;19908;-31
2023/08/21 10:33:54;;;;;;;;;;;25.30;62.10;;;;;;5094282;28;19954;-34
2023/08/21 10:36:49;;;;;;;;;;;25.30;62.00;;;;;;5093997;28;19908;-32
2023/08/21 10:39:16;;;;;;;;;;;25.30;61.90;;;;;;5080449;28;19908;-37
2023/08/21 10:42:03;;;;;;;;;;;25.40;61.80;;;;;;5094093;28;20324;-33
2023/08/21 10:44:55;;;;;;;;;;;25.40;61.80;;;;;;5093686;28;19919;-31
2023/08/21 10:47:21;;;;;;;;;;;25.40;60.10;;;;;;5092865;28;19919;-33
2023/08/21 10:49:48;;;;;;;;;;;25.40;60.80;;;;;;5093757;28;19912;-33
2023/08/21 10:52:13;;;;;;;;;;;25.40;60.00;;;;;;5094183;28;19908;-30
2023/08/21 10:54:46;;;;;;;;;;;25.40;60.10;;;;;;5093986;28;19962;-31
2023/08/21 10:57:11;;;;;;;;;;;25.50;60.10;;;;;;5093675;28;19999;-32
2023/08/21 10:59:37;;;;;;;;;;;25.60;59.80;;;;;;5093684;28;19963;-36
2023/08/21 11:02:03;;;;;;;;;;;25.60;59.90;;;;;;5093871;28;19931;-33
2023/08/21 11:04:28;;;;;;;;;;;25.60;59.60;;;;;;5093633;28;19919;-32
2023/08/21 11:06:54;;;;;;;;;;;25.70;59.70;;;;;;5093477;28;19912;-34
2023/08/21 11:09:19;;;;;;;;;;;25.80;59.80;;;;;;5093879;28;19908;-36
2023/08/21 11:11:45;;;;;;;;;;;25.80;59.60;;;;;;5093523;28;20399;-32
2023/08/21 11:14:10;;;;;;;;;;;25.90;59.60;;;;;;5093441;28;19965;-31
2023/08/21 11:16:36;;;;;;;;;;;25.90;59.60;;;;;;5093497;28;19954;-34
2023/08/21 11:19:05;;;;;;;;;;;25.90;59.40;;;;;;5093391;28;19908;-36
2023/08/21 11:21:30;;;;;;;;;;;26.00;59.10;;;;;;5093156;28;19908;-31
2023/08/21 11:23:56;;;;;;;;;;;26.00;59.00;;;;;;5092013;28;20006;-29
2023/08/21 11:26:21;;;;;;;;;;;26.10;59.20;;;;;;5091687;28;20367;-33
2023/08/21 11:28:48;;;;;;;;;;;26.10;58.70;;;;;;5093444;28;19965;-30
2023/08/21 11:31:13;;;;;;;;;;;26.20;58.10;;;;;;5093427;28;19908;-33
2023/08/21 11:33:39;;;;;;;;;;;26.20;58.00;;;;;;5093181;28;19908;-34
2023/08/21 11:36:04;;;;;;;;;;;26.30;58.20;;;;;;5093465;28;19948;-33
2023/08/21 11:38:30;;;;;;;;;;;26.40;58.00;;;;;;5092977;28;19907;-31
2023/08/21 11:41:00;;;;;;;;;;;26.40;58.30;;;;;;5093263;28;20359;-31
2023/08/21 11:43:35;;;;;;;;;;;26.50;58.20;;;;;;5092835;28;19915;-32
2023/08/21 11:46:02;;;;;;;;;;;26.60;58.00;;;;;;5091342;28;19919;-36
2023/08/21 11:48:27;;;;;;;;;;;26.70;57.70;;;;;;5092899;28;20384;-36
2023/08/21 11:50:53;;;;;;;;;;;26.70;57.90;;;;;;5092931;28;19916;-37
2023/08/21 11:53:51;;;;;;;;;;;26.70;57.70;;;;;;5093061;28;19919;-35
2023/08/21 11:56:17;;;;;;;;;;;26.80;57.60;;;;;;5080155;28;20390;-32
2023/08/21 11:58:46;;;;;;;;;;;27.00;57.60;;;;;;5092908;28;19908;-31
2023/08/21 12:01:19;;;;;;;;;;;27.00;57.50;;;;;;5092873;28;19915;-37
2023/08/21 12:03:44;;;;;;;;;;;27.10;57.40;;;;;;5092593;28;19908;-34
2023/08/21 12:06:11;;;;;;;;;;;27.20;57.40;;;;;;5092289;28;19927;-35
2023/08/21 12:08:36;;;;;;;;;;;27.20;57.30;;;;;;5092533;28;19908;-31
2023/08/21 12:11:02;;;;;;;;;;;27.30;57.20;;;;;;5092810;28;19962;-34
2023/08/21 12:13:27;;;;;;;;;;;27.40;56.80;;;;;;5092699;28;19962;-36
2023/08/21 12:15:54;;;;;;;;;;;27.50;56.90;;;;;;5091966;28;21571;-37
2023/08/21 12:18:20;;;;;;;;;;;27.60;56.80;;;;;;5092380;28;19947;-31
2023/08/21 12:20:45;;;;;;;;;;;27.60;56.50;;;;;;5092381;28;19908;-32
2023/08/21 12:23:11;;;;;;;;;;;27.80;56.20;;;;;;5092367;28;19908;-34
2023/08/21 12:25:36;;;;;;;;;;;27.80;56.10;;;;;;5092513;28;19919;-34
2023/08/21 12:28:02;;;;;;;;;;;27.90;56.00;;;;;;5092143;28;19915;-34
2023/08/21 12:30:27;;;;;;;;;;;27.90;55.60;;;;;;5092300;28;20365;-32
2023/08/21 12:32:53;;;;;;;;;;;27.90;55.60;;;;;;5091159;28;19915;-34
2023/08/21 12:35:18;;;;;;;;;;;28.00;55.70;;;;;;5092377;28;19955;-31
2023/08/21 12:37:44;;;;;;;;;;;28.10;55.60;;;;;;5091991;28;19909;-33
2023/08/21 12:40:09;;;;;;;;;;;28.10;55.40;;;;;;5092193;28;19973;-36
2023/08/21 12:42:35;;;;;;;;;;;28.20;55.00;;;;;;5092088;28;19915;-34
2023/08/21 12:45:00;;;;;;;;;;;28.20;54.40;;;;;;5092037;28;20302;-34
2023/08/21 12:47:26;;;;;;;;;;;28.20;54.70;;;;;;5092228;28;19915;-30
2023/08/21 12:49:51;;;;;;;;;;;28.30;53.90;;;;;;5092002;28;19912;-31
2023/08/21 12:52:17;;;;;;;;;;;28.30;53.60;;;;;;5092028;28;20443;-35
2023/08/21 12:54:42;;;;;;;;;;;28.30;53.80;;;;;;5092238;28;19908;-33
2023/08/21 12:57:08;;;;;;;;;;;28.30;53.70;;;;;;5090867;28;20306;-37
2023/08/21 12:59:34;;;;;;;;;;;28.40;53.50;;;;;;5091883;28;19908;-32
2023/08/21 13:02:03;;;;;;;;;;;28.50;53.50;;;;;;5092300;28;19954;-34
2023/08/21 13:04:28;;;;;;;;;;;28.60;53.50;;;;;;5091877;28;19918;-36
2023/08/21 13:06:54;;;;;;;;;;;28.60;53.60;;;;;;5091870;28;19916;-38
2023/08/21 13:09:19;;;;;;;;;;;28.80;53.50;;;;;;5090420;28;19967;-35
2023/08/21 13:11:45;;;;;;;;;;;28.80;53.40;;;;;;5094179;28;19920;-37
2023/08/21 13:14:10;;;;;;;;;;;28.90;53.30;;;;;;5095822;28;19970;-34
2023/08/21 13:16:36;;;;;;;;;;;29.00;53.00;;;;;;5095653;28;19912;-34
2023/08/21 13:19:01;;;;;;;;;;;29.10;52.40;;;;;;5095680;28;19912;-34
2023/08/21 13:21:27;;;;;;;;;;;29.20;53.30;;;;;;5095546;28;19912;-37
2023/08/21 13:23:52;;;;;;;;;;;29.20;52.70;;;;;;5095481;28;19962;-36
2023/08/21 13:26:18;;;;;;;;;;;29.30;52.50;;;;;;5095618;28;20338;-36
2023/08/21 13:28:43;;;;;;;;;;;29.40;52.50;;;;;;5095483;28;20364;-36
2023/08/21 13:31:10;;;;;;;;;;;29.50;52.40;;;;;;5095706;28;19923;-35
2023/08/21 13:33:45;;;;;;;;;;;29.60;52.30;;;;;;5094317;28;19961;-36
2023/08/21 13:36:11;;;;;;;;;;;29.60;51.50;;;;;;5095329;28;19912;-39
2023/08/21 13:38:36;;;;;;;;;;;29.60;51.60;;;;;;5095298;28;19919;-34
2023/08/21 13:41:02;;;;;;;;;;;29.70;51.70;;;;;;5095280;28;19912;-35
2023/08/21 13:43:27;;;;;;;;;;;29.80;51.40;;;;;;5095131;28;20371;-38
2023/08/21 13:45:53;;;;;;;;;;;29.80;51.10;;;;;;5094954;28;19916;-37
2023/08/21 13:48:18;;;;;;;;;;;29.90;51.30;;;;;;5094905;28;19916;-36
2023/08/21 13:50:44;;;;;;;;;;;30.00;51.40;;;;;;5094847;28;19912;-33
2023/08/21 13:53:09;;;;;;;;;;;30.00;50.10;;;;;;5095182;28;19912;-35
2023/08/21 13:55:35;;;;;;;;;;;30.10;50.20;;;;;;5094821;28;20343;-34
2023/08/21 13:58:00;;;;;;;;;;;30.10;49.80;;;;;;5094895;28;20265;-34
2023/08/21 14:00:25;;;;;;;;;;;30.10;49.20;;;;;;5094902;28;19912;-33
2023/08/21 14:02:51;;;;;;;;;;;30.10;49.10;;;;;;5095160;28;19970;-36
2023/08/21 14:05:17;;;;;;;;;;;30.10;49.60;;;;;;5094609;28;19954;-34
2023/08/21 14:07:43;;;;;;;;;;;30.20;49.30;;;;;;5094999;28;19912;-37
2023/08/21 14:10:09;;;;;;;;;;;30.30;48.90;;;;;;5095147;28;19969;-34